createdAt,value
2023-06-24T00:01:06.115Z,6.70
2023-06-24T00:03:38.675Z,6.00
2023-06-24T00:06:05.623Z,6.07
2023-06-24T00:08:35.647Z,6.80
2023-06-24T00:11:03.542Z,6.60
2023-06-24T00:13:30.505Z,6.80
2023-06-24T00:15:57.221Z,6.77
2023-06-24T00:18:25.638Z,6.67
2023-06-24T00:20:52.381Z,6.40
2023-06-24T00:23:26.455Z,6.67
2023-06-24T00:25:54.130Z,7.13
2023-06-24T00:28:21.105Z,7.13
2023-06-24T00:30:50.863Z,7.77
2023-06-24T00:33:22.910Z,7.33
2023-06-24T00:35:50.845Z,7.20
2023-06-24T00:38:19.142Z,7.80
2023-06-24T00:40:48.842Z,7.03
2023-06-24T00:43:19.605Z,7.73
2023-06-24T00:45:54.237Z,7.80
2023-06-24T00:48:22.156Z,7.53
2023-06-24T00:50:52.751Z,7.60
2023-06-24T00:53:25.749Z,7.73
2023-06-24T00:55:53.749Z,7.70
2023-06-24T00:58:23.732Z,7.30
2023-06-24T01:00:58.245Z,7.90
2023-06-24T01:03:26.648Z,7.93
2023-06-24T01:05:55.072Z,8.17
2023-06-24T01:08:24.015Z,8.80
2023-06-24T01:10:53.565Z,8.30
2023-06-24T01:13:23.268Z,8.80
2023-06-24T01:15:50.305Z,8.40
2023-06-24T01:18:29.063Z,8.50
2023-06-24T01:21:14.708Z,8.50
2023-06-24T01:23:50.120Z,8.80
2023-06-24T01:26:53.307Z,8.27
2023-06-24T01:29:32.172Z,9.20
2023-06-24T01:32:16.488Z,8.20
2023-06-24T01:34:51.014Z,8.37
2023-06-24T01:37:19.380Z,8.07
2023-06-24T01:39:53.158Z,8.70
2023-06-24T01:42:20.718Z,8.50
2023-06-24T01:44:49.328Z,8.70
2023-06-24T01:47:21.070Z,8.40
2023-06-24T01:49:50.016Z,8.30
2023-06-24T01:52:17.299Z,8.10
2023-06-24T01:54:44.652Z,8.97
2023-06-24T01:57:12.443Z,9.27
2023-06-24T01:59:41.747Z,9.20
2023-06-24T02:02:09.296Z,9.33
2023-06-24T02:04:36.512Z,8.87
2023-06-24T02:07:04.572Z,8.80
2023-06-24T02:09:33.675Z,8.93
2023-06-24T02:12:03.864Z,9.60
2023-06-24T02:14:32.108Z,9.73
2023-06-24T02:17:00.266Z,10.40
2023-06-24T02:19:29.250Z,9.60
2023-06-24T02:21:58.960Z,9.77
2023-06-24T02:24:27.530Z,9.63
2023-06-24T02:26:54.962Z,10.90
2023-06-24T02:29:23.004Z,9.83
2023-06-24T02:31:50.200Z,10.63
2023-06-24T02:34:17.145Z,10.50
2023-06-24T02:36:43.840Z,10.03
2023-06-24T02:39:13.129Z,9.67
2023-06-24T02:41:39.759Z,10.33
2023-06-24T02:44:14.321Z,10.63
2023-06-24T02:46:45.154Z,9.80
2023-06-24T02:49:19.517Z,10.87
2023-06-24T02:51:46.669Z,8.70
2023-06-24T02:54:14.468Z,9.73
2023-06-24T02:57:02.040Z,9.57
2023-06-24T02:59:44.998Z,9.13
2023-06-24T03:02:13.317Z,9.70
2023-06-24T03:04:40.651Z,9.87
2023-06-24T03:07:09.895Z,9.93
2023-06-24T03:09:39.715Z,10.13
2023-06-24T03:12:07.053Z,8.87
2023-06-24T03:14:40.538Z,9.40
2023-06-24T03:17:07.255Z,9.07
2023-06-24T03:19:33.916Z,8.83
2023-06-24T03:22:00.652Z,8.80
2023-06-24T03:24:27.322Z,8.80
2023-06-24T03:26:57.895Z,8.63
2023-06-24T03:29:29.579Z,8.57
2023-06-24T03:32:11.728Z,8.70
2023-06-24T03:34:38.596Z,8.10
2023-06-24T03:37:08.261Z,7.70
2023-06-24T03:39:38.452Z,7.87
2023-06-24T03:42:06.201Z,7.60
2023-06-24T03:44:34.295Z,8.37
2023-06-24T03:47:02.304Z,8.10
2023-06-24T03:49:29.027Z,7.10
2023-06-24T03:51:55.725Z,8.47
2023-06-24T03:54:22.433Z,7.70
2023-06-24T03:56:49.387Z,7.90
2023-06-24T03:59:15.998Z,8.00
2023-06-24T04:01:45.197Z,8.53
2023-06-24T04:04:14.229Z,8.30
2023-06-24T04:06:43.368Z,7.67
2023-06-24T04:09:14.477Z,6.70
2023-06-24T04:11:43.654Z,6.77
2023-06-24T04:14:10.509Z,6.57
2023-06-24T04:16:37.526Z,6.33
2023-06-24T04:19:04.432Z,6.60
2023-06-24T04:21:31.228Z,6.00
2023-06-24T04:23:57.965Z,6.40
2023-06-24T04:26:24.840Z,6.13
2023-06-24T04:28:51.554Z,5.60
2023-06-24T04:31:18.197Z,4.93
2023-06-24T04:33:44.985Z,5.00
2023-06-24T04:36:13.968Z,4.93
2023-06-24T04:38:40.719Z,5.60
2023-06-24T04:41:07.450Z,4.83
2023-06-24T04:43:34.103Z,5.13
2023-06-24T04:46:00.751Z,5.33
2023-06-24T04:48:27.987Z,5.40
2023-06-24T04:50:59.033Z,5.33
2023-06-24T04:53:25.952Z,5.70
2023-06-24T04:55:52.667Z,5.00
2023-06-24T04:58:26.668Z,4.70
2023-06-24T05:00:54.917Z,4.70
2023-06-24T05:03:21.710Z,4.73
2023-06-24T05:05:57.045Z,5.00
2023-06-24T05:08:23.677Z,4.90
2023-06-24T05:10:52.297Z,4.70
2023-06-24T05:13:29.198Z,5.80
2023-06-24T05:15:55.829Z,5.10
2023-06-24T05:18:25.051Z,5.10
2023-06-24T05:20:54.082Z,5.40
2023-06-24T05:23:22.906Z,5.13
2023-06-24T05:25:57.242Z,4.80
2023-06-24T05:28:30.341Z,5.10
2023-06-24T05:30:57.833Z,5.00
2023-06-24T05:33:24.452Z,5.40
2023-06-24T05:35:53.127Z,4.70
2023-06-24T05:38:28.899Z,4.97
2023-06-24T05:40:55.609Z,4.30
2023-06-24T05:43:22.291Z,5.13
2023-06-24T05:45:48.970Z,5.13
2023-06-24T05:48:25.331Z,5.27
2023-06-24T05:50:54.224Z,5.37
2023-06-24T05:53:20.842Z,5.20
2023-06-24T05:55:54.080Z,4.90
2023-06-24T05:58:23.188Z,4.90
2023-06-24T06:00:57.546Z,5.10
2023-06-24T06:03:24.239Z,5.40
2023-06-24T06:05:52.042Z,4.53
2023-06-24T06:08:24.090Z,4.90
2023-06-24T06:10:54.574Z,5.10
2023-06-24T06:13:24.386Z,4.70
2023-06-24T06:15:53.778Z,4.50
2023-06-24T06:18:27.766Z,5.07
2023-06-24T06:20:54.432Z,4.50
2023-06-24T06:23:23.223Z,4.57
2023-06-24T06:25:52.859Z,4.77
2023-06-24T06:28:24.865Z,4.40
2023-06-24T06:30:54.055Z,5.30
2023-06-24T06:33:23.225Z,4.73
2023-06-24T06:35:54.999Z,4.60
2023-06-24T06:38:24.634Z,4.90
2023-06-24T06:40:58.791Z,5.23
2023-06-24T06:43:25.441Z,4.90
2023-06-24T06:45:54.433Z,5.03
2023-06-24T06:48:23.391Z,4.80
2023-06-24T06:50:54.320Z,4.70
2023-06-24T06:53:28.577Z,4.40
2023-06-24T06:56:00.500Z,4.53
2023-06-24T06:58:27.303Z,4.50
2023-06-24T07:00:53.972Z,4.57
2023-06-24T07:03:20.581Z,5.00
2023-06-24T07:05:48.782Z,5.10
2023-06-24T07:08:25.221Z,5.00
2023-06-24T07:10:51.907Z,5.80
2023-06-24T07:13:22.987Z,5.87
2023-06-24T07:15:57.235Z,6.40
2023-06-24T07:18:24.199Z,4.73
2023-06-24T07:21:01.056Z,5.00
2023-06-24T07:23:27.750Z,5.67
2023-06-24T07:26:05.941Z,5.80
2023-06-24T07:28:32.652Z,6.30
2023-06-24T07:30:59.298Z,6.17
2023-06-24T07:33:26.436Z,6.63
2023-06-24T07:36:02.243Z,6.20
2023-06-24T07:38:32.098Z,5.87
2023-06-24T07:40:58.769Z,6.40
2023-06-24T07:43:32.753Z,6.00
2023-06-24T07:45:59.400Z,6.60
2023-06-24T07:48:26.022Z,6.23
2023-06-24T07:50:52.754Z,7.07
2023-06-24T07:53:22.267Z,7.00
2023-06-24T07:55:51.668Z,6.80
2023-06-24T07:58:20.329Z,6.20
2023-06-24T08:00:53.012Z,5.80
2023-06-24T08:03:27.180Z,6.40
2023-06-24T08:05:54.208Z,6.70
2023-06-24T08:08:23.470Z,6.60
2023-06-24T08:10:50.149Z,7.20
2023-06-24T08:13:16.814Z,6.77
2023-06-24T08:15:43.658Z,7.43
2023-06-24T08:18:10.385Z,6.60
2023-06-24T08:20:37.057Z,7.17
2023-06-24T08:23:03.775Z,7.83
2023-06-24T08:25:31.543Z,6.63
2023-06-24T08:27:58.147Z,6.47
2023-06-24T08:30:25.033Z,5.97
2023-06-24T08:32:52.688Z,6.33
2023-06-24T08:35:19.429Z,6.70
2023-06-24T08:37:48.680Z,6.23
2023-06-24T08:40:15.287Z,7.00
2023-06-24T08:42:42.259Z,6.63
2023-06-24T08:45:09.276Z,7.07
2023-06-24T08:47:36.512Z,6.93
2023-06-24T08:50:09.836Z,6.37
2023-06-24T08:52:38.126Z,6.80
2023-06-24T08:55:07.748Z,6.03
2023-06-24T08:57:34.449Z,6.53
2023-06-24T09:00:03.037Z,6.70
2023-06-24T09:02:33.992Z,7.00
2023-06-24T09:05:08.013Z,6.07
2023-06-24T09:07:35.018Z,9.17
2023-06-24T09:10:04.910Z,6.57
2023-06-24T09:12:49.113Z,6.30
2023-06-24T09:15:22.919Z,4.90
2023-06-24T09:17:49.648Z,5.87
2023-06-24T09:20:21.161Z,5.57
2023-06-24T09:22:53.834Z,6.40
2023-06-24T09:25:20.991Z,5.07
2023-06-24T09:27:53.641Z,4.40
2023-06-24T09:30:29.824Z,5.90
2023-06-24T09:32:56.909Z,5.80
2023-06-24T09:35:25.693Z,5.27
2023-06-24T09:37:54.969Z,5.93
2023-06-24T09:40:22.437Z,5.47
2023-06-24T09:43:01.509Z,4.80
2023-06-24T09:45:29.598Z,4.70
2023-06-24T09:47:57.231Z,4.97
2023-06-24T09:50:24.003Z,4.87
2023-06-24T09:52:58.953Z,5.57
2023-06-24T09:55:26.354Z,5.73
2023-06-24T09:57:54.332Z,5.30
2023-06-24T10:00:20.971Z,5.50
2023-06-24T10:02:48.890Z,5.73
2023-06-24T10:05:16.012Z,6.10
2023-06-24T10:07:43.213Z,5.77
2023-06-24T10:10:10.599Z,5.53
2023-06-24T10:12:37.656Z,5.47
2023-06-24T10:15:05.297Z,6.60
2023-06-24T10:17:34.566Z,6.90
2023-06-24T10:20:05.728Z,5.57
2023-06-24T10:22:33.915Z,6.30
2023-06-24T10:25:06.848Z,7.40
2023-06-24T10:27:40.809Z,7.13
2023-06-24T10:30:09.065Z,7.30
2023-06-24T10:32:45.893Z,6.17
2023-06-24T10:35:23.895Z,7.30
2023-06-24T10:38:11.338Z,6.57
2023-06-24T10:40:42.819Z,6.60
2023-06-24T10:43:24.005Z,7.17
2023-06-24T10:45:52.006Z,6.90
2023-06-24T10:48:20.877Z,7.57
2023-06-24T10:50:54.119Z,8.17
2023-06-24T10:53:22.806Z,7.80
2023-06-24T10:55:54.444Z,7.00
2023-06-24T10:58:22.984Z,7.07
2023-06-24T11:01:07.707Z,6.40
2023-06-24T11:03:35.554Z,6.33
2023-06-24T11:06:05.432Z,7.07
2023-06-24T11:08:32.152Z,6.30
2023-06-24T11:10:58.823Z,6.43
2023-06-24T11:13:25.599Z,7.00
2023-06-24T11:15:54.660Z,7.20
2023-06-24T11:18:24.431Z,6.70
2023-06-24T11:20:54.819Z,6.33
2023-06-24T11:23:23.353Z,6.90
2023-06-24T11:25:54.337Z,6.60
2023-06-24T11:28:23.294Z,6.40
2023-06-24T11:30:59.769Z,6.90
2023-06-24T11:33:29.820Z,7.40
2023-06-24T11:35:56.618Z,6.40
2023-06-24T11:38:32.994Z,6.10
2023-06-24T11:40:59.800Z,6.07
2023-06-24T11:43:27.444Z,7.00
2023-06-24T11:45:54.158Z,6.23
2023-06-24T11:48:28.766Z,6.80
2023-06-24T11:50:56.236Z,6.30
2023-06-24T11:53:43.478Z,6.70
2023-06-24T11:56:10.736Z,6.43
2023-06-24T11:58:43.338Z,6.00
2023-06-24T12:01:10.080Z,6.60
2023-06-24T12:03:36.924Z,7.20
2023-06-24T12:06:03.744Z,6.70
2023-06-24T12:08:39.400Z,6.37
2023-06-24T12:11:17.150Z,6.70
2023-06-24T12:13:44.017Z,6.33
2023-06-24T12:16:10.655Z,6.67
2023-06-24T12:18:37.758Z,6.40
2023-06-24T12:21:04.466Z,6.60
2023-06-24T12:23:31.086Z,6.97
2023-06-24T12:26:00.353Z,6.40
2023-06-24T12:28:27.023Z,5.97
2023-06-24T12:30:56.207Z,5.60
2023-06-24T12:33:23.947Z,6.13
2023-06-24T12:35:56.734Z,5.57
2023-06-24T12:38:25.969Z,5.30
2023-06-24T12:40:53.715Z,5.37
2023-06-24T12:43:26.484Z,5.93
2023-06-24T12:45:56.820Z,5.97
2023-06-24T12:48:37.984Z,5.73
2023-06-24T12:51:04.635Z,5.90
2023-06-24T12:53:31.397Z,5.77
2023-06-24T12:55:58.044Z,6.23
2023-06-24T12:58:26.292Z,6.20
2023-06-24T13:00:55.210Z,6.20
2023-06-24T13:03:22.931Z,6.00
2023-06-24T13:05:54.991Z,6.10
2023-06-24T13:08:24.165Z,6.17
2023-06-24T13:10:58.328Z,6.10
2023-06-24T13:13:24.992Z,5.67
2023-06-24T13:15:59.138Z,6.13
2023-06-24T13:18:25.794Z,6.00
2023-06-24T13:20:55.775Z,5.73
2023-06-24T13:23:30.359Z,5.60
2023-06-24T13:25:57.023Z,5.80
2023-06-24T13:28:26.198Z,5.93
2023-06-24T13:30:55.637Z,6.00
2023-06-24T13:33:24.505Z,5.70
2023-06-24T13:35:52.530Z,5.90
2023-06-24T13:38:29.402Z,6.00
2023-06-24T13:40:56.050Z,6.10
2023-06-24T13:43:25.131Z,6.37
2023-06-24T13:45:52.825Z,6.07
2023-06-24T13:48:24.333Z,6.03
2023-06-24T13:50:53.534Z,6.30
2023-06-24T13:53:20.185Z,5.97
2023-06-24T13:55:46.843Z,5.87
2023-06-24T13:58:13.652Z,5.97
2023-06-24T14:00:40.961Z,6.40
2023-06-24T14:03:13.439Z,6.27
2023-06-24T14:05:40.430Z,6.70
2023-06-24T14:08:07.231Z,6.07
2023-06-24T14:10:34.139Z,6.60
2023-06-24T14:13:00.939Z,6.70
2023-06-24T14:15:27.540Z,6.00
2023-06-24T14:17:54.371Z,6.63
2023-06-24T14:20:21.102Z,6.73
2023-06-24T14:23:01.805Z,7.00
2023-06-24T14:25:28.461Z,6.10
2023-06-24T14:27:55.122Z,6.53
2023-06-24T14:30:24.301Z,6.60
2023-06-24T14:32:51.072Z,6.80
2023-06-24T14:35:17.823Z,6.93
2023-06-24T14:37:44.435Z,6.07
2023-06-24T14:40:11.215Z,6.00
2023-06-24T14:42:40.468Z,6.63
2023-06-24T14:45:07.443Z,6.50
2023-06-24T14:47:36.885Z,7.10
2023-06-24T14:50:05.046Z,7.40
2023-06-24T14:52:34.625Z,6.30
2023-06-24T14:55:06.663Z,6.63
2023-06-24T14:57:36.484Z,6.23
2023-06-24T15:00:07.302Z,6.47
2023-06-24T15:02:36.604Z,6.73
2023-06-24T15:05:04.063Z,6.57
2023-06-24T15:07:34.876Z,6.80
2023-06-24T15:10:07.191Z,6.77
2023-06-24T15:12:36.295Z,6.30
2023-06-24T15:15:06.448Z,6.77
2023-06-24T15:17:37.317Z,7.20
2023-06-24T15:20:09.589Z,6.50
2023-06-24T15:22:36.280Z,6.77
2023-06-24T15:25:06.666Z,6.77
2023-06-24T15:27:35.517Z,7.00
2023-06-24T15:30:04.876Z,6.67
2023-06-24T15:32:35.077Z,7.33
2023-06-24T15:35:07.682Z,7.23
2023-06-24T15:37:37.303Z,6.80
2023-06-24T15:40:04.229Z,6.73
2023-06-24T15:42:31.118Z,7.20
2023-06-24T15:44:57.844Z,6.77
2023-06-24T15:47:24.609Z,7.20
2023-06-24T15:49:52.905Z,7.30
2023-06-24T15:52:24.824Z,7.10
2023-06-24T15:54:51.453Z,6.80
2023-06-24T15:57:18.099Z,6.93
2023-06-24T15:59:44.687Z,7.20
2023-06-24T16:02:11.312Z,7.33
2023-06-24T16:04:38.056Z,6.60
2023-06-24T16:07:05.009Z,7.30
2023-06-24T16:09:31.749Z,7.80
2023-06-24T16:11:58.467Z,7.10
2023-06-24T16:14:25.125Z,7.50
2023-06-24T16:16:52.907Z,6.57
2023-06-24T16:19:19.579Z,6.97
2023-06-24T16:21:47.221Z,7.50
2023-06-24T16:24:16.696Z,7.03
2023-06-24T16:26:52.404Z,7.30
2023-06-24T16:29:20.182Z,7.80
2023-06-24T16:31:46.890Z,7.00
2023-06-24T16:34:23.745Z,7.03
2023-06-24T16:36:51.887Z,7.20
2023-06-24T16:39:19.770Z,7.63
2023-06-24T16:41:46.499Z,6.97
2023-06-24T16:44:13.246Z,6.87
2023-06-24T16:46:39.925Z,7.73
2023-06-24T16:49:08.425Z,7.67
2023-06-24T16:51:35.521Z,7.10
2023-06-24T16:54:02.410Z,7.00
2023-06-24T16:56:29.616Z,7.10
2023-06-24T16:58:56.290Z,6.97
2023-06-24T17:01:25.238Z,7.30
2023-06-24T17:03:51.941Z,7.30
2023-06-24T17:06:18.620Z,7.83
2023-06-24T17:08:45.281Z,7.27
2023-06-24T17:11:11.958Z,7.17
2023-06-24T17:13:43.478Z,10.70
2023-06-24T17:16:10.214Z,8.43
2023-06-24T17:18:36.913Z,9.20
2023-06-24T17:21:03.722Z,12.00
2023-06-24T17:23:30.309Z,13.90
2023-06-24T17:25:57.023Z,9.90
2023-06-24T17:28:26.266Z,7.80
2023-06-24T17:30:53.140Z,7.57
2023-06-24T17:36:01.299Z,8.13
2023-06-24T17:38:28.096Z,8.33
2023-06-24T17:40:54.726Z,8.33
2023-06-24T17:43:27.399Z,8.23
2023-06-24T17:45:56.211Z,7.87
2023-06-24T17:48:23.686Z,7.87
2023-06-24T17:50:51.540Z,7.60
2023-06-24T17:53:21.966Z,7.20
2023-06-24T17:55:48.718Z,7.50
2023-06-24T17:58:15.369Z,7.00
2023-06-24T18:00:42.151Z,7.97
2023-06-24T18:03:12.190Z,7.80
2023-06-24T18:05:41.299Z,7.57
2023-06-24T18:08:08.001Z,7.37
2023-06-24T18:10:36.725Z,7.63
2023-06-24T18:13:05.570Z,7.00
2023-06-24T18:15:32.232Z,8.60
2023-06-24T18:17:59.003Z,8.57
2023-06-24T18:20:25.833Z,8.87
2023-06-24T18:22:52.601Z,8.20
2023-06-24T18:25:19.245Z,8.40
2023-06-24T18:27:45.874Z,8.83
2023-06-24T18:30:12.637Z,9.00
2023-06-24T18:32:41.713Z,9.00
2023-06-24T18:35:08.710Z,9.10
2023-06-24T18:37:35.387Z,8.87
2023-06-24T18:40:10.017Z,9.13
2023-06-24T18:42:36.698Z,9.40
2023-06-24T18:45:03.895Z,9.33
2023-06-24T18:47:38.041Z,9.70
2023-06-24T18:50:05.077Z,9.30
2023-06-24T18:52:36.533Z,10.10
2023-06-24T18:55:05.886Z,9.07
2023-06-24T18:57:34.933Z,9.20
2023-06-24T19:00:06.915Z,9.80
2023-06-24T19:02:36.040Z,9.60
2023-06-24T19:05:05.634Z,10.00
2023-06-24T19:07:39.682Z,9.90
2023-06-24T19:10:06.543Z,10.50
2023-06-24T19:12:35.136Z,10.70
2023-06-24T19:15:01.797Z,10.40
2023-06-24T19:17:33.330Z,10.50
2023-06-24T19:20:03.850Z,9.73
2023-06-24T19:22:36.491Z,9.63
2023-06-24T19:25:03.320Z,9.83
2023-06-24T19:27:29.935Z,17.63
2023-06-24T19:29:56.528Z,11.13
2023-06-24T19:32:35.186Z,10.90
2023-06-24T19:35:10.776Z,10.67
2023-06-24T19:37:37.424Z,10.47
2023-06-24T19:40:05.027Z,10.30
2023-06-24T19:42:44.355Z,9.87
2023-06-24T19:45:11.255Z,9.33
2023-06-24T19:47:37.937Z,9.67
2023-06-24T19:50:05.760Z,9.33
2023-06-24T19:52:34.288Z,9.30
2023-06-24T19:55:05.363Z,8.87
2023-06-24T19:57:52.302Z,9.10
2023-06-24T20:00:19.437Z,9.27
2023-06-24T20:02:46.961Z,9.70
2023-06-24T20:05:14.434Z,9.17
2023-06-24T20:07:41.145Z,9.13
2023-06-24T20:10:08.547Z,9.20
2023-06-24T20:12:35.211Z,10.07
2023-06-24T20:15:04.663Z,9.73
2023-06-24T20:17:33.942Z,11.17
2023-06-24T20:20:06.218Z,10.07
2023-06-24T20:22:40.411Z,10.00
2023-06-24T20:25:07.447Z,9.97
2023-06-24T20:27:34.801Z,9.60
2023-06-24T20:30:05.616Z,9.63
2023-06-24T20:32:36.104Z,9.80
2023-06-24T20:35:10.328Z,9.90
2023-06-24T20:37:36.995Z,9.43
2023-06-24T20:40:06.763Z,10.30
2023-06-24T20:42:40.899Z,9.10
2023-06-24T20:45:09.027Z,8.93
2023-06-24T20:47:35.742Z,8.87
2023-06-24T20:50:02.429Z,8.67
2023-06-24T20:52:29.146Z,23.57
2023-06-24T20:54:55.827Z,48.70
2023-06-24T20:57:22.475Z,79.40
2023-06-24T20:59:49.241Z,29.07
2023-06-24T21:02:15.983Z,16.30
2023-06-24T21:04:43.144Z,12.80
2023-06-24T21:07:09.819Z,17.20
2023-06-24T21:09:36.545Z,12.43
2023-06-24T21:12:03.362Z,17.60
2023-06-24T21:14:29.942Z,15.07
2023-06-24T21:16:56.602Z,11.17
2023-06-24T21:19:23.289Z,10.27
2023-06-24T21:21:52.034Z,10.67
2023-06-24T21:24:18.723Z,17.07
2023-06-24T21:26:48.562Z,11.93
2023-06-24T21:29:18.210Z,13.73
2023-06-24T21:31:47.837Z,13.03
2023-06-24T21:34:16.735Z,16.27
2023-06-24T21:36:45.911Z,13.93
2023-06-24T21:39:14.906Z,21.87
2023-06-24T21:41:45.956Z,22.00
2023-06-24T21:44:20.298Z,24.43
2023-06-24T21:46:46.979Z,31.03
2023-06-24T21:49:16.489Z,32.73
2023-06-24T21:52:00.797Z,36.23
2023-06-24T21:54:27.452Z,22.90
2023-06-24T21:56:54.099Z,32.40
2023-06-24T21:59:23.260Z,19.80
2023-06-24T22:01:49.945Z,28.17
2023-06-24T22:04:16.772Z,13.27
2023-06-24T22:06:43.710Z,14.27
2023-06-24T22:09:14.509Z,17.10
2023-06-24T22:11:46.516Z,15.60
2023-06-24T22:14:24.415Z,11.30
2023-06-24T22:16:51.084Z,10.10
2023-06-24T22:19:18.186Z,9.10
2023-06-24T22:21:44.821Z,8.90
2023-06-24T22:24:14.874Z,8.57
2023-06-24T22:26:49.135Z,9.10
2023-06-24T22:29:15.821Z,8.80
2023-06-24T22:31:49.723Z,8.60
2023-06-24T22:34:16.515Z,9.20
2023-06-24T22:36:45.190Z,8.43
2023-06-24T22:39:17.405Z,9.10
2023-06-24T22:41:44.044Z,8.77
2023-06-24T22:44:10.791Z,8.90
2023-06-24T22:46:37.593Z,8.87
2023-06-24T22:49:04.283Z,8.90
2023-06-24T22:51:31.953Z,8.90
2023-06-24T22:53:58.880Z,8.50
2023-06-24T22:56:25.609Z,9.17
2023-06-24T22:58:52.622Z,8.57
2023-06-24T23:01:19.291Z,8.83
2023-06-24T23:03:46.270Z,9.17
2023-06-24T23:06:20.884Z,8.57
2023-06-24T23:08:47.730Z,8.33
2023-06-24T23:11:14.504Z,8.83
2023-06-24T23:13:42.321Z,8.50
2023-06-24T23:16:09.573Z,8.83
2023-06-24T23:18:36.475Z,8.63
2023-06-24T23:21:03.746Z,8.43
2023-06-24T23:23:37.298Z,9.10
2023-06-24T23:26:11.220Z,8.50
2023-06-24T23:28:39.022Z,7.73
2023-06-24T23:31:06.175Z,8.43
2023-06-24T23:33:33.904Z,8.07
2023-06-24T23:36:03.036Z,8.53
2023-06-24T23:38:29.766Z,8.50
2023-06-24T23:40:57.888Z,8.07
2023-06-24T23:43:27.301Z,7.80
2023-06-24T23:45:54.334Z,8.10
2023-06-24T23:48:25.091Z,8.60
2023-06-24T23:50:51.779Z,8.30
2023-06-24T23:53:18.443Z,8.17
2023-06-24T23:55:45.090Z,8.27
2023-06-24T23:58:18.969Z,8.23
